Time;durP1;ratioP1;P1;durP2;ratioP2;P2;SDS_P1;SDS_P2;PMS_P1;PMS_P2;Temp;Humidity;BMP_temperature;BMP_pressure;BME280_temperature;BME280_humidity;BME280_pressure;Samples;Min_cycle;Max_cycle;Signal;HPM_P1;HPM_P2
2021/05/18 00:01:49;;;;;;;;;19.25;19.25;;;;;30.77;62.29;98771.53;4954990;28;9033;-74
2021/05/18 00:04:18;;;;;;;;;23.50;23.50;;;;;30.79;61.92;98767.22;4954980;28;8860;-74
2021/05/18 00:06:48;;;;;;;;;19.50;19.50;;;;;30.73;63.39;98749.75;4954865;28;8938;-74
2021/05/18 00:11:58;;;;;;;;;19.00;18.50;;;;;30.86;62.51;98766.41;4954827;28;8915;-75
2021/05/18 00:14:43;;;;;;;;;17.75;17.75;;;;;30.85;60.60;98766.78;4954524;28;9552;-75
2021/05/18 00:17:11;;;;;;;;;16.00;16.00;;;;;30.85;61.23;98774.97;4954800;28;8990;-74
2021/05/18 00:19:41;;;;;;;;;17.75;17.75;;;;;30.91;60.69;98789.69;4954614;28;8875;-74
2021/05/18 00:22:10;;;;;;;;;19.25;18.25;;;;;30.86;61.12;98787.41;4953955;28;8934;-75
2021/05/18 00:24:39;;;;;;;;;17.50;17.50;;;;;30.93;59.55;98790.06;4954658;28;8863;-74
2021/05/18 00:27:08;;;;;;;;;18.00;18.00;;;;;30.95;61.40;98801.34;4955594;28;8871;-74
2021/05/18 00:29:37;;;;;;;;;16.50;16.25;;;;;30.91;59.64;98795.16;4954778;28;8863;-75
2021/05/18 00:32:06;;;;;;;;;16.25;16.25;;;;;30.98;61.53;98814.16;4954530;28;8962;-75
2021/05/18 00:34:34;;;;;;;;;19.75;17.75;;;;;30.99;60.65;98821.94;4953319;28;8855;-75
2021/05/18 00:37:03;;;;;;;;;17.25;17.25;;;;;30.98;59.99;98817.66;4954373;28;8863;-74
2021/05/18 00:39:32;;;;;;;;;17.50;17.50;;;;;31.02;60.48;98815.69;4954214;28;8899;-74
2021/05/18 00:42:01;;;;;;;;;17.25;17.25;;;;;30.99;59.76;98826.59;4954286;28;8871;-75
2021/05/18 00:44:30;;;;;;;;;16.50;16.50;;;;;31.03;59.95;98825.41;4954042;28;9566;-75
2021/05/18 00:46:58;;;;;;;;;19.25;19.25;;;;;31.05;59.48;98823.06;4954292;28;8878;-75
2021/05/18 00:49:27;;;;;;;;;16.75;16.50;;;;;31.09;60.52;98831.19;4953980;28;9596;-75
2021/05/18 00:51:56;;;;;;;;;18.25;17.75;;;;;31.11;59.88;98826.13;4954540;28;9054;-74
2021/05/18 00:54:28;;;;;;;;;16.75;16.75;;;;;31.09;59.32;98817.56;4954614;28;9692;-74
2021/05/18 00:59:38;;;;;;;;;14.00;14.00;;;;;31.09;59.34;98812.13;4955550;28;8954;-75
2021/05/18 01:02:06;;;;;;;;;15.00;15.00;;;;;31.07;58.75;98800.84;4962151;28;8860;-76
2021/05/18 01:04:41;;;;;;;;;15.75;15.00;;;;;31.15;58.63;98813.28;4964225;28;8852;-76
2021/05/18 01:07:10;;;;;;;;;21.25;20.00;;;;;31.19;59.53;98811.28;4957893;28;8860;-75
2021/05/18 01:09:41;;;;;;;;;21.75;21.75;;;;;31.23;60.34;98813.97;4955172;28;8950;-76
2021/05/18 01:12:10;;;;;;;;;15.75;15.75;;;;;31.28;60.75;98817.03;4952917;28;8872;-78
2021/05/18 01:14:38;;;;;;;;;20.50;20.50;;;;;31.25;60.26;98809.66;4961606;28;8887;-75
2021/05/18 01:17:07;;;;;;;;;17.00;17.00;;;;;31.35;59.77;98816.19;4959503;28;8871;-76
2021/05/18 01:19:36;;;;;;;;;18.50;18.50;;;;;31.31;60.08;98805.31;4960129;28;8867;-76
2021/05/18 01:22:05;;;;;;;;;18.50;18.50;;;;;31.41;59.67;98814.56;4955517;29;8859;-76
2021/05/18 01:24:34;;;;;;;;;16.25;16.25;;;;;31.43;59.49;98810.25;4953050;28;8864;-74
2021/05/18 01:27:03;;;;;;;;;17.00;17.00;;;;;31.47;59.40;98811.00;4954167;28;8883;-74
2021/05/18 01:29:32;;;;;;;;;17.75;17.75;;;;;31.51;59.21;98804.72;4953140;28;8868;-77
2021/05/18 01:32:07;;;;;;;;;15.00;15.00;;;;;31.54;58.18;98809.38;4961264;28;8875;-75
2021/05/18 01:34:35;;;;;;;;;14.25;14.25;;;;;31.56;57.54;98810.53;4975262;28;8867;-77
2021/05/18 01:37:04;;;;;;;;;14.50;14.50;;;;;31.59;58.61;98806.22;4956342;28;8873;-75
2021/05/18 01:44:55;;;;;;;;;18.00;18.00;;;;;31.70;58.92;98802.22;4956911;28;8880;-76
2021/05/18 01:47:24;;;;;;;;;15.00;15.00;;;;;31.69;58.59;98802.63;4961458;28;8942;-76
2021/05/18 01:49:54;;;;;;;;;16.25;15.50;;;;;31.74;58.66;98797.50;4956601;28;8883;-74
2021/05/18 01:52:23;;;;;;;;;15.25;15.25;;;;;31.81;57.58;98799.38;4956819;28;8863;-75
2021/05/18 01:54:52;;;;;;;;;15.50;15.50;;;;;31.85;57.84;98807.50;4957300;28;8875;-75
2021/05/18 01:57:21;;;;;;;;;14.25;14.25;;;;;31.85;57.45;98800.09;4956911;28;8882;-74
2021/05/18 01:59:53;;;;;;;;;15.25;15.25;;;;;31.84;58.02;98800.50;4955677;28;8875;-74
2021/05/18 02:02:22;;;;;;;;;15.00;14.00;;;;;31.88;56.44;98804.75;4957002;28;8856;-75
2021/05/18 02:04:56;;;;;;;;;14.25;14.25;;;;;31.94;56.69;98805.84;4956457;28;8868;-74
2021/05/18 02:07:29;;;;;;;;;15.75;14.75;;;;;31.97;57.11;98804.25;4956447;28;8855;-75
2021/05/18 02:09:58;;;;;;;;;16.50;16.50;;;;;32.00;57.39;98814.34;4955909;28;8857;-74
2021/05/18 02:12:27;;;;;;;;;16.50;16.50;;;;;32.04;57.37;98804.16;4937827;28;8900;-72
2021/05/18 02:15:03;;;;;;;;;15.00;15.00;;;;;32.02;57.11;98798.34;4955923;28;8855;-74
2021/05/18 02:17:40;;;;;;;;;15.00;15.00;;;;;32.04;56.76;98802.22;4953873;28;8855;-77
2021/05/18 02:25:33;;;;;;;;;15.50;14.75;;;;;32.06;56.76;98793.63;4954524;28;8847;-75
2021/05/18 02:28:04;;;;;;;;;14.50;14.50;;;;;32.07;57.06;98787.75;4954974;28;8853;-73
2021/05/18 02:30:32;;;;;;;;;12.50;12.50;;;;;32.11;56.69;98793.16;4958532;28;8885;-77
2021/05/18 02:33:03;;;;;;;;;15.00;14.75;;;;;32.13;56.85;98792.75;4956448;28;8873;-77
2021/05/18 02:35:33;;;;;;;;;14.00;14.00;;;;;32.18;56.80;98790.34;4956153;28;8854;-78
2021/05/18 02:38:01;;;;;;;;;9.25;9.25;;;;;32.19;56.69;98786.41;4955775;28;8966;-76
2021/05/18 02:40:31;;;;;;;;;16.00;16.00;;;;;32.25;56.76;98789.50;4954850;28;8897;-75
2021/05/18 02:43:00;;;;;;;;;15.50;15.50;;;;;32.25;56.80;98779.34;4954923;28;8945;-76
2021/05/18 02:50:49;;;;;;;;;14.50;14.50;;;;;32.32;56.64;98775.75;4954296;28;8899;-75
2021/05/18 02:53:19;;;;;;;;;12.50;12.50;;;;;32.39;56.23;98775.66;4951494;28;8882;-75
2021/05/18 03:03:24;;;;;;;;;13.75;13.50;;;;;32.55;55.96;98781.22;4953561;28;8950;-75
2021/05/18 03:05:54;;;;;;;;;16.00;15.25;;;;;32.59;55.64;98776.50;4954023;28;8903;-73
2021/05/18 03:08:23;;;;;;;;;13.25;12.50;;;;;32.63;55.74;98773.72;4954366;28;8913;-74
2021/05/18 03:10:52;;;;;;;;;19.50;17.00;;;;;32.66;55.81;98770.16;4963247;28;8891;-78
2021/05/18 03:20:08;;;;;;;;;15.75;15.75;;;;;32.81;54.88;98754.34;5066600;23;8868;-74
2021/05/18 03:22:38;;;;;;;;;13.75;13.75;;;;;32.89;54.92;98759.25;4970730;28;8850;-75
2021/05/18 03:25:08;;;;;;;;;14.00;14.00;;;;;32.94;53.85;98749.81;4966970;28;8921;-77
2021/05/18 03:27:37;;;;;;;;;15.50;15.50;;;;;32.98;54.15;98754.03;4975817;28;8911;-73
2021/05/18 03:35:38;;;;;;;;;16.00;15.25;;;;;33.02;53.69;98741.09;4967598;28;8870;-74
2021/05/18 03:40:53;;;;;;;;;11.80;11.80;;;;;33.07;54.54;98734.38;4964071;28;8864;-73
2021/05/18 04:04:30;;;;;;;;;10.20;10.20;;;;;33.71;51.88;98722.22;4953772;28;8871;-75
2021/05/18 04:39:29;;;;;;;;;13.20;13.20;;;;;34.51;50.33;98681.75;4969945;28;8860;-74
2021/05/18 05:00:25;;;;;;;;;14.60;14.20;;;;;34.91;48.52;98644.72;4953520;28;8878;-77
2021/05/18 05:08:30;;;;;;;;;12.00;11.20;;;;;34.93;49.66;98617.63;4956118;28;8875;-76
2021/05/18 05:16:13;;;;;;;;;13.60;13.00;;;;;34.88;50.04;98595.47;4965825;28;8871;-76
2021/05/18 05:18:42;;;;;;;;;13.20;13.00;;;;;34.92;49.45;98602.41;4963913;28;9591;-76
2021/05/18 05:21:11;;;;;;;;;11.00;11.00;;;;;34.79;49.97;98590.59;4969306;28;8861;-74
2021/05/18 05:23:40;;;;;;;;;7.60;7.60;;;;;35.02;48.71;98616.25;4971221;28;8877;-80
2021/05/18 05:26:09;;;;;;;;;9.60;9.60;;;;;35.09;49.29;98611.34;4976241;28;8873;-80
2021/05/18 05:28:38;;;;;;;;;9.40;9.40;;;;;35.17;48.34;98611.88;4972267;28;8877;-80
2021/05/18 05:31:07;;;;;;;;;10.40;10.40;;;;;35.18;47.48;98603.22;4969432;28;8876;-80
2021/05/18 05:33:36;;;;;;;;;10.40;10.40;;;;;35.29;48.36;98605.66;4959306;28;8855;-81
2021/05/18 05:36:05;;;;;;;;;9.40;9.40;;;;;35.38;47.90;98603.06;4954888;28;8854;-77
2021/05/18 05:38:34;;;;;;;;;8.80;8.80;;;;;35.43;48.73;98594.28;4957796;28;8872;-77
2021/05/18 05:41:03;;;;;;;;;8.00;8.00;;;;;35.53;49.13;98590.44;4960317;28;8895;-81
2021/05/18 05:43:32;;;;;;;;;11.60;11.60;;;;;35.48;47.58;98576.50;4965023;28;8896;-82
2021/05/18 05:46:02;;;;;;;;;0.00;0.00;;;;;35.55;48.48;98579.81;4970781;28;8877;-82
2021/05/18 05:48:33;;;;;;;;;6.60;6.60;;;;;35.58;48.55;98565.22;4970794;28;8967;-79
2021/05/18 05:51:04;;;;;;;;;7.40;7.40;;;;;35.68;47.47;98548.84;4970285;28;8884;-78
2021/05/18 05:53:32;;;;;;;;;6.80;6.80;;;;;35.76;46.78;98550.16;4969314;28;8983;-79
2021/05/18 05:56:01;;;;;;;;;8.60;8.60;;;;;35.88;47.11;98557.66;4970927;28;8896;-81
2021/05/18 05:58:32;;;;;;;;;5.60;5.60;;;;;35.99;46.59;98568.28;4970374;28;8888;-79
2021/05/18 06:01:01;;;;;;;;;8.00;8.00;;;;;36.07;47.23;98588.81;4970841;28;8979;-82
2021/05/18 06:03:30;;;;;;;;;9.80;9.80;;;;;36.10;47.68;98585.19;4971664;28;8861;-78
2021/05/18 06:05:59;;;;;;;;;8.80;8.80;;;;;36.02;48.41;98578.38;4971250;28;8872;-78
2021/05/18 06:08:28;;;;;;;;;10.20;10.20;;;;;35.77;48.01;98571.69;4969996;28;8853;-76
2021/05/18 06:11:05;;;;;;;;;11.20;10.60;;;;;35.58;48.92;98573.44;4971318;28;8857;-73
2021/05/18 06:48:14;;;;;;;;;9.40;9.40;;;;;33.70;50.36;98524.50;4964540;28;8877;-84
2021/05/18 06:50:44;;;;;;;;;5.00;5.00;;;;;33.67;51.10;98516.38;4964278;28;8887;-79
2021/05/18 06:53:13;;;;;;;;;6.60;6.60;;;;;33.73;50.94;98520.13;4969499;28;8880;-79
2021/05/18 06:55:42;;;;;;;;;5.60;5.60;;;;;33.76;50.85;98511.06;4966435;28;8958;-75
2021/05/18 06:58:15;;;;;;;;;8.40;8.40;;;;;33.81;50.83;98513.28;4964756;28;8927;-75
2021/05/18 07:00:45;;;;;;;;;6.80;6.80;;;;;33.89;50.99;98519.34;4971648;28;8939;-79
2021/05/18 07:03:21;;;;;;;;;6.80;6.80;;;;;33.93;50.53;98525.50;4972366;28;8952;-76
2021/05/18 07:10:49;;;;;;;;;5.20;5.20;;;;;33.90;50.74;98520.91;4984630;28;8854;-77
2021/05/18 07:13:18;;;;;;;;;5.20;5.20;;;;;33.86;50.06;98517.47;4975228;28;8927;-75
2021/05/18 07:15:47;;;;;;;;;6.00;6.00;;;;;33.80;50.68;98517.25;4975305;28;8853;-79
2021/05/18 07:18:19;;;;;;;;;5.60;5.60;;;;;33.74;50.09;98501.75;4975021;28;8955;-78
2021/05/18 07:20:49;;;;;;;;;5.60;5.60;;;;;33.73;49.62;98487.31;4974379;28;8845;-74
2021/05/18 07:23:21;;;;;;;;;5.40;5.40;;;;;33.68;49.63;98474.91;4975772;28;8907;-74
2021/05/18 07:25:50;;;;;;;;;5.40;5.40;;;;;33.68;48.95;98449.50;4975311;28;9682;-75
2021/05/18 07:28:20;;;;;;;;;5.40;5.40;;;;;33.66;49.90;98452.69;4975009;28;8849;-75
2021/05/18 07:30:49;;;;;;;;;6.20;6.20;;;;;33.67;50.94;98469.88;4975015;28;8837;-75
2021/05/18 07:33:18;;;;;;;;;7.20;7.20;;;;;33.63;50.22;98471.91;4973744;28;8841;-74
2021/05/18 07:35:47;;;;;;;;;6.80;6.80;;;;;33.55;50.59;98465.84;4974946;28;8884;-74
2021/05/18 07:38:15;;;;;;;;;7.00;7.00;;;;;33.51;51.59;98467.91;4974875;28;8860;-74
2021/05/18 07:40:44;;;;;;;;;6.20;6.20;;;;;33.43;50.38;98444.66;4974798;28;8859;-74
2021/05/18 07:43:18;;;;;;;;;8.80;7.20;;;;;33.45;50.71;98425.06;4974698;28;8865;-76
2021/05/18 07:45:55;;;;;;;;;8.00;7.20;;;;;33.41;49.15;98416.97;4974060;28;8879;-74
2021/05/18 07:48:38;;;;;;;;;6.00;6.00;;;;;33.36;49.13;98404.56;4974831;28;8856;-75
2021/05/18 07:59:15;;;;;;;;;7.40;7.40;;;;;33.25;52.46;98416.94;4974554;28;8857;-74
2021/05/18 08:07:06;;;;;;;;;8.00;8.00;;;;;33.05;52.79;98430.66;4974270;28;9692;-75
2021/05/18 08:09:40;;;;;;;;;8.80;8.80;;;;;33.03;52.10;98422.88;4974213;28;8849;-75
2021/05/18 08:12:10;;;;;;;;;5.20;5.00;;;;;33.02;52.04;98404.94;4974253;28;8841;-75
2021/05/18 08:14:44;;;;;;;;;5.60;5.60;;;;;33.03;49.99;98398.28;4974232;28;8943;-74
2021/05/18 08:17:18;;;;;;;;;6.20;6.20;;;;;33.01;52.02;98395.22;4974165;28;8869;-75
2021/05/18 08:22:56;;;;;;;;;5.80;5.80;;;;;33.05;51.74;98406.06;4973961;28;8872;-74
2021/05/18 10:37:34;;;;;;;;;10.25;10.25;;;;;32.20;55.59;98367.66;4975966;28;8853;-76
2021/05/18 10:40:26;;;;;;;;;19.25;18.50;;;;;32.20;56.13;98370.38;4975884;28;8853;-76
2021/05/18 10:43:22;;;;;;;;;19.75;19.75;;;;;32.22;56.49;98372.69;4974894;28;9610;-77
2021/05/18 10:48:35;;;;;;;;;22.50;22.50;;;;;32.20;55.92;98388.72;4975873;28;8957;-77
2021/05/18 10:51:50;;;;;;;;;21.00;21.00;;;;;32.27;56.22;98408.50;4976317;28;8891;-76
2021/05/18 10:54:25;;;;;;;;;24.00;24.00;;;;;32.26;56.64;98415.13;4975739;28;8866;-76
2021/05/18 10:56:58;;;;;;;;;31.25;31.00;;;;;32.25;56.93;98412.84;4975634;28;8868;-77
2021/05/18 10:59:43;;;;;;;;;34.75;32.25;;;;;32.24;60.05;98419.47;4975532;28;8849;-76
2021/05/18 11:02:29;;;;;;;;;52.00;43.75;;;;;32.20;58.04;98400.41;4975410;28;8849;-76
2021/05/18 11:05:18;;;;;;;;;54.67;45.33;;;;;32.12;58.76;98396.28;4975262;28;8939;-76
2021/05/18 11:07:47;;;;;;;;;51.00;43.75;;;;;32.03;57.62;98396.06;4976139;28;9045;-76
2021/05/18 11:10:18;;;;;;;;;50.75;42.50;;;;;31.93;58.30;98391.56;4975412;28;8857;-77
2021/05/18 11:12:54;;;;;;;;;47.00;40.00;;;;;31.84;59.43;98388.63;4975269;28;8861;-77
2021/05/18 11:15:25;;;;;;;;;42.75;36.50;;;;;31.75;58.73;98373.56;4975958;28;8861;-76
2021/05/18 11:17:54;;;;;;;;;43.00;38.00;;;;;31.76;59.09;98383.28;4975206;28;8881;-75
2021/05/18 11:26:01;;;;;;;;;32.50;30.75;;;;;31.86;57.86;98386.25;4975085;28;8856;-76
2021/05/18 11:28:34;;;;;;;;;31.50;30.50;;;;;31.86;58.11;98381.56;4975307;28;8853;-76
2021/05/18 11:31:11;;;;;;;;;25.50;25.00;;;;;31.93;58.47;98377.94;4975062;28;8932;-76
2021/05/18 11:33:52;;;;;;;;;28.75;26.50;;;;;31.95;57.69;98386.47;4974992;28;8952;-77
2021/05/18 11:36:29;;;;;;;;;24.00;23.00;;;;;31.97;57.52;98395.78;4973609;28;8876;-76
2021/05/18 11:39:08;;;;;;;;;34.25;32.00;;;;;31.97;57.05;98397.75;4974817;28;8857;-77
2021/05/18 11:41:40;;;;;;;;;31.50;30.00;;;;;31.97;57.20;98409.41;4974703;28;8861;-76
2021/05/18 11:44:12;;;;;;;;;32.25;28.25;;;;;31.92;57.38;98401.72;4974694;28;8861;-76
2021/05/18 11:46:49;;;;;;;;;31.00;29.75;;;;;31.86;56.73;98399.88;4974755;28;8959;-76
2021/05/18 11:49:21;;;;;;;;;22.00;20.00;;;;;31.82;56.60;98399.19;4973524;28;8860;-76
2021/05/18 11:51:52;;;;;;;;;30.75;30.50;;;;;31.77;56.41;98398.47;4974559;28;8857;-76
2021/05/18 11:54:41;;;;;;;;;35.50;33.75;;;;;31.71;58.13;98385.72;4974453;28;9563;-76
2021/05/18 11:57:10;;;;;;;;;39.50;34.50;;;;;31.72;58.56;98393.50;4974500;28;8982;-76
2021/05/18 11:59:38;;;;;;;;;30.50;30.50;;;;;31.72;57.46;98393.50;4974440;28;8865;-77
2021/05/18 12:02:07;;;;;;;;;36.75;32.00;;;;;31.74;58.35;98395.81;4974623;28;8869;-76
2021/05/18 12:04:37;;;;;;;;;28.75;28.75;;;;;31.75;56.79;98392.66;4974336;28;8849;-77
2021/05/18 12:07:08;;;;;;;;;29.75;29.75;;;;;31.76;56.44;98398.88;4975033;28;8869;-77
2021/05/18 12:09:42;;;;;;;;;35.25;33.50;;;;;31.72;56.99;98396.22;4974259;28;8849;-76
2021/05/18 12:12:15;;;;;;;;;29.00;27.50;;;;;31.74;57.02;98402.03;4974271;28;8887;-77
2021/05/18 12:14:47;;;;;;;;;31.50;28.25;;;;;31.73;56.89;98397.00;4974163;28;8845;-76
2021/05/18 12:17:29;;;;;;;;;36.75;34.75;;;;;31.73;57.56;98408.69;4973309;28;8856;-76
2021/05/18 12:19:58;;;;;;;;;28.75;28.75;;;;;31.75;58.17;98413.72;4973925;28;8869;-77
2021/05/18 12:22:27;;;;;;;;;29.25;29.25;;;;;31.74;58.22;98412.94;4974705;28;8883;-77
2021/05/18 12:24:57;;;;;;;;;35.00;32.00;;;;;31.78;57.33;98424.56;4974300;28;8871;-76
2021/05/18 12:27:26;;;;;;;;;23.00;23.00;;;;;31.82;56.85;98440.09;4974724;28;8885;-77
2021/05/18 12:29:58;;;;;;;;;22.50;21.50;;;;;31.80;57.33;98440.50;4974381;28;8845;-76
2021/05/18 12:32:31;;;;;;;;;22.25;20.75;;;;;31.86;58.22;98457.94;4974031;28;8865;-76
2021/05/18 12:35:06;;;;;;;;;22.25;22.25;;;;;31.89;57.97;98451.66;4973937;28;8841;-76
2021/05/18 12:37:42;;;;;;;;;27.50;27.50;;;;;31.90;56.53;98457.88;4972628;28;8877;-76
2021/05/18 12:40:31;;;;;;;;;25.75;25.75;;;;;31.86;56.69;98462.63;4973694;28;9680;-77
2021/05/18 12:43:12;;;;;;;;;21.25;21.25;;;;;31.79;56.78;98460.78;4974339;28;8883;-76
2021/05/18 12:45:43;;;;;;;;;25.25;25.00;;;;;31.72;56.97;98461.69;4973601;28;8911;-76
2021/05/18 12:48:14;;;;;;;;;20.00;20.00;;;;;31.64;57.17;98473.84;4973624;28;8979;-76
2021/05/18 12:50:47;;;;;;;;;16.75;15.00;;;;;31.59;57.32;98485.22;4973597;28;8939;-76
2021/05/18 12:53:29;;;;;;;;;21.50;21.50;;;;;31.55;57.07;98494.66;4973506;28;8841;-77
2021/05/18 12:55:59;;;;;;;;;25.25;25.25;;;;;31.54;57.22;98498.56;4973552;28;8841;-76
2021/05/18 12:58:34;;;;;;;;;28.25;27.50;;;;;31.51;57.53;98502.13;4973462;28;8865;-76
2021/05/18 13:01:16;;;;;;;;;24.00;24.00;;;;;31.44;57.82;98506.47;4973493;28;8860;-76
2021/05/18 13:04:09;;;;;;;;;25.50;25.00;;;;;31.44;59.99;98511.16;4974154;28;8853;-76
2021/05/18 13:06:50;;;;;;;;;31.00;30.25;;;;;31.43;58.23;98515.84;4973479;28;8857;-76
2021/05/18 13:09:21;;;;;;;;;22.25;22.25;;;;;31.41;59.54;98512.75;4973537;28;8844;-76
2021/05/18 13:14:56;;;;;;;;;24.25;23.75;;;;;31.37;59.51;98506.59;4973608;28;8877;-76
2021/05/18 13:17:26;;;;;;;;;21.25;21.25;;;;;31.35;58.29;98505.44;4973229;28;8935;-76
2021/05/18 13:20:12;;;;;;;;;29.75;28.25;;;;;31.34;57.45;98507.41;4973035;28;8846;-77
2021/05/18 13:22:43;;;;;;;;;29.50;29.50;;;;;31.23;58.03;98506.78;4973170;28;9598;-76
2021/05/18 13:27:58;;;;;;;;;25.25;25.00;;;;;31.16;58.85;98514.31;4973419;28;8881;-76
2021/05/18 13:30:29;;;;;;;;;25.25;25.25;;;;;31.11;59.34;98519.00;4976724;28;8849;-76
2021/05/18 13:32:58;;;;;;;;;26.75;26.75;;;;;31.16;59.50;98527.94;4977217;28;8853;-77
2021/05/18 13:35:29;;;;;;;;;27.00;27.00;;;;;31.12;59.25;98517.06;4977311;28;8872;-76
2021/05/18 13:38:03;;;;;;;;;24.50;24.50;;;;;31.15;58.70;98513.53;4977150;28;8860;-76
2021/05/18 13:40:32;;;;;;;;;23.25;23.25;;;;;31.12;59.05;98520.56;4977116;28;8849;-76
2021/05/18 13:43:01;;;;;;;;;27.75;26.00;;;;;31.16;59.78;98525.22;4977010;28;8887;-76
2021/05/18 13:45:30;;;;;;;;;28.50;28.50;;;;;31.16;59.08;98523.25;4977126;28;9614;-76
2021/05/18 13:47:59;;;;;;;;;28.00;28.00;;;;;31.15;58.58;98521.72;4976476;28;9667;-76
2021/05/18 13:50:31;;;;;;;;;23.00;23.00;;;;;31.17;58.65;98522.06;4977143;28;8853;-76
2021/05/18 13:53:00;;;;;;;;;29.00;29.00;;;;;31.13;59.31;98522.13;4977209;28;8857;-76
2021/05/18 13:55:29;;;;;;;;;26.00;26.00;;;;;31.17;60.92;98532.22;4976983;28;8853;-76
2021/05/18 13:57:58;;;;;;;;;25.00;25.00;;;;;31.18;58.63;98523.63;4977066;28;8883;-76
2021/05/18 14:00:27;;;;;;;;;20.75;20.50;;;;;31.16;57.95;98517.81;4976433;28;8889;-76
2021/05/18 14:02:57;;;;;;;;;28.50;27.25;;;;;31.18;58.77;98518.16;4976369;28;8932;-76
2021/05/18 14:05:29;;;;;;;;;27.75;25.25;;;;;31.17;59.14;98513.91;4976547;28;9668;-76
2021/05/18 14:08:24;;;;;;;;;24.00;24.00;;;;;31.17;58.92;98522.06;4976476;28;8852;-77
2021/05/18 14:11:06;;;;;;;;;30.75;30.75;;;;;31.19;59.81;98518.94;4976760;28;8852;-77
2021/05/18 14:13:37;;;;;;;;;24.75;24.75;;;;;31.18;59.46;98529.06;4976448;28;8911;-77
2021/05/18 14:16:09;;;;;;;;;25.75;25.75;;;;;31.23;59.17;98544.16;4976347;28;8924;-76
2021/05/18 14:18:39;;;;;;;;;26.75;25.75;;;;;31.19;60.68;98551.66;4975048;28;8865;-77
2021/05/18 14:21:08;;;;;;;;;20.50;20.50;;;;;31.22;59.40;98553.53;4976384;28;8849;-77
2021/05/18 14:23:43;;;;;;;;;17.00;17.00;;;;;31.25;58.59;98563.59;4976344;28;8845;-77
2021/05/18 14:26:11;;;;;;;;;30.25;28.00;;;;;31.24;59.39;98564.78;4976269;28;8935;-76
2021/05/18 14:28:40;;;;;;;;;25.25;25.25;;;;;31.23;60.81;98569.47;4976162;28;8853;-75
2021/05/18 14:31:12;;;;;;;;;25.25;25.25;;;;;31.23;60.80;98585.03;4974985;28;8868;-76
2021/05/18 14:33:42;;;;;;;;;27.75;27.75;;;;;31.18;60.67;98604.59;4975926;28;8852;-76
2021/05/18 14:36:12;;;;;;;;;26.25;25.50;;;;;31.26;60.50;98620.44;4976382;28;8856;-76
2021/05/18 14:39:05;;;;;;;;;24.50;24.50;;;;;31.30;61.21;98631.28;4974960;28;8841;-76
2021/05/18 14:44:21;;;;;;;;;21.00;20.75;;;;;31.30;61.33;98642.97;4975836;28;8848;-77
2021/05/18 14:57:23;;;;;;;;;23.25;22.25;;;;;31.36;60.31;98651.47;4975552;28;8879;-76
2021/05/18 14:59:52;;;;;;;;;17.75;17.75;;;;;31.33;60.57;98652.28;4975558;28;8861;-76
2021/05/18 15:02:21;;;;;;;;;19.75;19.75;;;;;31.12;60.89;98631.50;4975407;28;8864;-76
2021/05/18 15:04:50;;;;;;;;;19.50;19.50;;;;;31.30;61.23;98667.50;4975468;28;9047;-76
2021/05/18 15:07:18;;;;;;;;;18.75;18.75;;;;;31.29;60.40;98676.84;4975441;28;8856;-77
2021/05/18 15:09:58;;;;;;;;;14.75;14.75;;;;;31.28;60.18;98674.53;4976234;28;8865;-76
2021/05/18 15:12:27;;;;;;;;;18.50;18.50;;;;;31.25;61.39;98675.34;4975384;28;9595;-76
2021/05/18 15:14:56;;;;;;;;;16.50;16.50;;;;;31.26;60.91;98690.50;4975276;28;8881;-76
2021/05/18 15:17:25;;;;;;;;;18.75;18.00;;;;;31.24;61.01;98695.59;4975447;28;8853;-76
2021/05/18 15:19:54;;;;;;;;;16.75;16.75;;;;;31.21;60.01;98685.50;4974107;28;8865;-76
2021/05/18 15:22:23;;;;;;;;;16.25;16.25;;;;;31.17;60.95;98679.34;4974161;28;8967;-76
2021/05/18 15:24:52;;;;;;;;;17.50;17.50;;;;;31.21;60.53;98680.06;4973985;28;8871;-76
2021/05/18 15:27:21;;;;;;;;;17.25;16.50;;;;;31.20;60.38;98678.53;4975167;28;8849;-77
2021/05/18 15:29:50;;;;;;;;;17.50;17.50;;;;;31.23;60.20;98694.03;4975081;28;8931;-77
2021/05/18 15:32:19;;;;;;;;;17.75;17.75;;;;;31.26;59.82;98687.78;4975006;28;8837;-76
2021/05/18 15:34:48;;;;;;;;;17.75;17.75;;;;;31.28;60.07;98694.38;4975441;28;8893;-77
2021/05/18 15:37:17;;;;;;;;;14.50;14.50;;;;;31.29;59.34;98686.97;4975597;28;8885;-76
2021/05/18 15:39:46;;;;;;;;;14.50;14.50;;;;;31.30;59.59;98693.97;4974934;28;8881;-77
2021/05/18 15:42:15;;;;;;;;;16.50;15.75;;;;;31.31;58.88;98696.28;4974819;28;8856;-77
2021/05/18 15:44:44;;;;;;;;;10.00;10.00;;;;;31.24;59.03;98680.00;4974746;28;9600;-77
2021/05/18 15:47:14;;;;;;;;;12.50;12.50;;;;;31.31;58.66;98682.66;4974739;28;8853;-77
2021/05/18 15:49:43;;;;;;;;;13.75;13.75;;;;;31.32;58.80;98680.72;4974699;28;8947;-76
2021/05/18 15:52:12;;;;;;;;;14.25;14.25;;;;;31.31;58.52;98669.03;4973288;28;8856;-76
2021/05/18 15:54:41;;;;;;;;;14.00;14.00;;;;;31.30;58.89;98656.59;4974659;28;8959;-76
2021/05/18 15:57:11;;;;;;;;;14.50;13.50;;;;;31.27;58.49;98667.53;4975521;28;8959;-77
2021/05/18 15:59:41;;;;;;;;;13.75;13.75;;;;;31.26;58.03;98664.03;4974475;28;8845;-76
2021/05/18 16:02:09;;;;;;;;;16.00;16.00;;;;;31.29;58.28;98671.38;4974625;28;9583;-76
2021/05/18 16:04:38;;;;;;;;;11.75;11.75;;;;;31.21;57.96;98656.31;4974573;28;8845;-76
2021/05/18 16:07:09;;;;;;;;;13.00;13.00;;;;;31.26;58.28;98660.53;4974329;28;8877;-76
2021/05/18 16:09:38;;;;;;;;;11.00;11.00;;;;;31.19;58.22;98661.41;4974286;28;8875;-76
2021/05/18 16:12:07;;;;;;;;;9.25;8.25;;;;;31.17;58.17;98655.59;4974339;28;8959;-76
2021/05/18 16:14:37;;;;;;;;;11.25;10.50;;;;;31.15;57.79;98649.78;4974300;28;8922;-76
2021/05/18 16:17:05;;;;;;;;;11.00;11.00;;;;;31.16;57.84;98647.81;4974243;28;8875;-76
2021/05/18 16:19:34;;;;;;;;;10.00;10.00;;;;;31.20;58.03;98657.50;4972983;28;8841;-76
2021/05/18 16:22:03;;;;;;;;;10.75;10.75;;;;;31.20;57.90;98648.56;4977061;28;8857;-76
2021/05/18 16:24:33;;;;;;;;;10.75;10.75;;;;;31.17;57.95;98630.31;4980342;28;8864;-76
2021/05/18 16:27:05;;;;;;;;;8.75;8.75;;;;;31.18;57.82;98631.84;4974536;28;8955;-76
2021/05/18 16:29:34;;;;;;;;;10.25;10.25;;;;;30.99;58.03;98595.81;4974069;28;8849;-76
2021/05/18 16:32:03;;;;;;;;;8.80;8.80;;;;;31.17;57.48;98622.13;4973962;28;8895;-76
2021/05/18 16:34:32;;;;;;;;;8.60;8.60;;;;;31.16;57.59;98617.84;4973078;28;9026;-76
2021/05/18 16:37:01;;;;;;;;;10.60;8.40;;;;;31.10;57.51;98614.78;4973893;28;8853;-76
2021/05/18 16:39:29;;;;;;;;;8.80;8.80;;;;;31.12;57.91;98609.69;4973858;28;8848;-75
2021/05/18 16:41:58;;;;;;;;;9.60;9.60;;;;;31.09;57.56;98614.00;4973806;28;8953;-77
2021/05/18 16:44:29;;;;;;;;;8.00;8.00;;;;;31.09;57.68;98610.50;4972504;28;8995;-77
2021/05/18 16:46:57;;;;;;;;;7.60;7.60;;;;;31.07;57.62;98604.69;4973997;28;8873;-76
2021/05/18 16:49:26;;;;;;;;;9.00;9.00;;;;;31.03;57.68;98588.38;4974015;28;9725;-76
2021/05/18 16:51:55;;;;;;;;;9.75;9.75;;;;;31.06;57.52;98578.63;4973948;28;8868;-75
2021/05/18 16:54:24;;;;;;;;;11.25;11.25;;;;;31.04;57.87;98559.97;4973606;28;8931;-76
2021/05/18 16:56:54;;;;;;;;;9.25;8.50;;;;;31.04;57.43;98556.47;4973414;28;8861;-76
2021/05/18 16:59:23;;;;;;;;;7.50;7.50;;;;;31.01;57.55;98549.88;4973833;28;9618;-76
2021/05/18 17:01:51;;;;;;;;;9.50;9.50;;;;;30.94;57.94;98536.34;4973402;28;8853;-76
2021/05/18 17:04:20;;;;;;;;;6.25;6.00;;;;;30.99;57.48;98537.84;4972810;28;8875;-76
2021/05/18 17:06:50;;;;;;;;;7.00;7.00;;;;;30.95;57.71;98539.84;4973439;28;8939;-77
2021/05/18 17:09:19;;;;;;;;;6.00;6.00;;;;;30.96;57.77;98535.94;4973433;28;8868;-76
2021/05/18 17:11:47;;;;;;;;;8.50;8.50;;;;;30.88;57.45;98518.13;4973376;28;8967;-76
2021/05/18 17:14:17;;;;;;;;;8.25;8.25;;;;;30.96;57.44;98536.72;4974063;28;9637;-76
2021/05/18 17:16:45;;;;;;;;;6.50;6.50;;;;;30.97;57.84;98532.81;4973433;28;8849;-77
2021/05/18 17:19:14;;;;;;;;;5.25;5.25;;;;;30.96;57.52;98530.50;4973184;28;8868;-77
2021/05/18 17:21:43;;;;;;;;;8.00;8.00;;;;;30.91;57.63;98526.28;4973299;28;8861;-76
2021/05/18 17:24:12;;;;;;;;;6.75;6.75;;;;;30.95;57.70;98531.66;4973343;28;8857;-76
2021/05/18 17:26:41;;;;;;;;;7.00;7.00;;;;;30.94;57.53;98528.19;4973795;28;8825;-76
2021/05/18 17:29:13;;;;;;;;;8.25;7.75;;;;;30.90;57.44;98518.50;4973211;28;8852;-76
2021/05/18 17:31:43;;;;;;;;;8.00;8.00;;;;;30.94;57.53;98522.72;4973200;28;8857;-76